sensor_id;sensor_type;location;lat;lon;timestamp;P1;durP1;ratioP1;P2;durP2;ratioP2
20166;SDS011;10243;49.118;8.508;2023-04-25T05:59:36;1.35;;;1.25;;
20166;SDS011;10243;49.118;8.508;2023-04-25T05:59:57;1.30;;;1.20;;
20166;SDS011;10243;49.118;8.508;2023-04-25T06:00:33;1.30;;;1.20;;
20166;SDS011;10243;49.118;8.508;2023-04-25T06:00:54;1.10;;;1.10;;
20166;SDS011;10243;49.118;8.508;2023-04-25T06:01:17;1.40;;;1.30;;
20166;SDS011;10243;49.118;8.508;2023-04-25T06:01:38;1.30;;;1.20;;
20166;SDS011;10243;49.118;8.508;2023-04-25T06:01:58;1.10;;;1.10;;
20166;SDS011;10243;49.118;8.508;2023-04-25T06:02:20;1.00;;;1.00;;
20166;SDS011;10243;49.118;8.508;2023-04-25T06:02:43;1.27;;;1.10;;
20166;SDS011;10243;49.118;8.508;2023-04-25T06:03:05;1.40;;;1.30;;
20166;SDS011;10243;49.118;8.508;2023-04-25T06:03:27;1.35;;;1.25;;
20166;SDS011;10243;49.118;8.508;2023-04-25T06:03:51;1.38;;;1.27;;
20166;SDS011;10243;49.118;8.508;2023-04-25T06:04:14;1.50;;;1.40;;
20166;SDS011;10243;49.118;8.508;2023-04-25T06:04:34;1.30;;;1.20;;
20166;SDS011;10243;49.118;8.508;2023-04-25T06:04:55;1.50;;;1.40;;
20166;SDS011;10243;49.118;8.508;2023-04-25T06:05:17;1.38;;;1.27;;
20166;SDS011;10243;49.118;8.508;2023-04-25T06:05:40;1.50;;;1.30;;
20166;SDS011;10243;49.118;8.508;2023-04-25T06:06:01;1.55;;;1.45;;
20166;SDS011;10243;49.118;8.508;2023-04-25T06:06:22;1.40;;;1.30;;
20166;SDS011;10243;49.118;8.508;2023-04-25T06:06:45;1.40;;;1.30;;
20166;SDS011;10243;49.118;8.508;2023-04-25T06:07:06;1.17;;;1.10;;
20166;SDS011;10243;49.118;8.508;2023-04-25T06:07:26;1.30;;;1.20;;
20166;SDS011;10243;49.118;8.508;2023-04-25T06:07:47;1.00;;;1.00;;
20166;SDS011;10243;49.118;8.508;2023-04-25T06:08:08;1.10;;;1.10;;
20166;SDS011;10243;49.118;8.508;2023-04-25T06:08:28;1.20;;;1.10;;
20166;SDS011;10243;49.118;8.508;2023-04-25T06:08:49;1.40;;;1.30;;
20166;SDS011;10243;49.118;8.508;2023-04-25T06:09:10;1.33;;;1.23;;
20166;SDS011;10243;49.118;8.508;2023-04-25T06:09:31;1.27;;;1.17;;
20166;SDS011;10243;49.118;8.508;2023-04-25T06:09:52;1.30;;;1.20;;
20166;SDS011;10243;49.118;8.508;2023-04-25T06:10:13;1.27;;;1.17;;
20166;SDS011;10243;49.118;8.508;2023-04-25T06:10:34;1.03;;;1.00;;
20166;SDS011;10243;49.118;8.508;2023-04-25T06:10:55;1.08;;;1.00;;
20166;SDS011;10243;49.118;8.508;2023-04-25T06:11:17;1.40;;;1.30;;
20166;SDS011;10243;49.118;8.508;2023-04-25T06:11:37;1.38;;;1.27;;
20166;SDS011;10243;49.118;8.508;2023-04-25T06:11:57;1.27;;;1.17;;
20166;SDS011;10243;49.118;8.508;2023-04-25T06:12:19;1.55;;;1.33;;
20166;SDS011;10243;49.118;8.508;2023-04-25T06:12:40;1.60;;;1.50;;
20166;SDS011;10243;49.118;8.508;2023-04-25T06:13:01;1.48;;;1.38;;
20166;SDS011;10243;49.118;8.508;2023-04-25T06:13:23;1.30;;;1.20;;
20166;SDS011;10243;49.118;8.508;2023-04-25T06:13:45;1.17;;;1.10;;
20166;SDS011;10243;49.118;8.508;2023-04-25T06:14:06;1.27;;;1.17;;
20166;SDS011;10243;49.118;8.508;2023-04-25T06:14:29;1.05;;;1.05;;
20166;SDS011;10243;49.118;8.508;2023-04-25T06:14:51;1.40;;;1.30;;
20166;SDS011;10243;49.118;8.508;2023-04-25T06:15:12;1.52;;;1.42;;
20166;SDS011;10243;49.118;8.508;2023-04-25T06:15:32;1.45;;;1.35;;
20166;SDS011;10243;49.118;8.508;2023-04-25T06:15:54;1.40;;;1.30;;
20166;SDS011;10243;49.118;8.508;2023-04-25T06:16:16;1.50;;;1.40;;
20166;SDS011;10243;49.118;8.508;2023-04-25T06:16:36;1.57;;;1.47;;
20166;SDS011;10243;49.118;8.508;2023-04-25T06:16:56;1.25;;;1.15;;
20166;SDS011;10243;49.118;8.508;2023-04-25T06:17:17;1.47;;;1.37;;
20166;SDS011;10243;49.118;8.508;2023-04-25T06:17:38;1.40;;;1.30;;
20166;SDS011;10243;49.118;8.508;2023-04-25T06:18:00;1.13;;;1.02;;
20166;SDS011;10243;49.118;8.508;2023-04-25T06:18:20;1.80;;;1.07;;
20166;SDS011;10243;49.118;8.508;2023-04-25T06:18:41;1.60;;;1.20;;
20166;SDS011;10243;49.118;8.508;2023-04-25T06:19:03;1.38;;;1.27;;
20166;SDS011;10243;49.118;8.508;2023-04-25T06:19:23;1.30;;;1.20;;
20166;SDS011;10243;49.118;8.508;2023-04-25T06:19:44;1.30;;;1.20;;
20166;SDS011;10243;49.118;8.508;2023-04-25T06:20:06;1.10;;;1.05;;
20166;SDS011;10243;49.118;8.508;2023-04-25T06:20:28;1.40;;;1.30;;
20166;SDS011;10243;49.118;8.508;2023-04-25T06:20:51;1.30;;;1.20;;
20166;SDS011;10243;49.118;8.508;2023-04-25T06:21:12;1.15;;;1.15;;
20166;SDS011;10243;49.118;8.508;2023-04-25T06:21:33;1.23;;;1.20;;
20166;SDS011;10243;49.118;8.508;2023-04-25T06:21:54;1.45;;;1.35;;
20166;SDS011;10243;49.118;8.508;2023-04-25T06:22:15;1.40;;;1.30;;
20166;SDS011;10243;49.118;8.508;2023-04-25T06:22:35;1.17;;;1.08;;
20166;SDS011;10243;49.118;8.508;2023-04-25T06:22:56;1.20;;;1.10;;
20166;SDS011;10243;49.118;8.508;2023-04-25T06:23:46;1.40;;;1.30;;
20166;SDS011;10243;49.118;8.508;2023-04-25T06:24:13;1.20;;;1.10;;
20166;SDS011;10243;49.118;8.508;2023-04-25T06:24:34;1.30;;;1.20;;
20166;SDS011;10243;49.118;8.508;2023-04-25T06:24:57;1.20;;;1.10;;
20166;SDS011;10243;49.118;8.508;2023-04-25T06:25:20;1.27;;;1.17;;
20166;SDS011;10243;49.118;8.508;2023-04-25T06:25:41;1.42;;;1.20;;
20166;SDS011;10243;49.118;8.508;2023-04-25T06:26:01;1.40;;;1.30;;
20166;SDS011;10243;49.118;8.508;2023-04-25T06:26:24;1.58;;;1.48;;
20166;SDS011;10243;49.118;8.508;2023-04-25T06:26:46;1.33;;;1.23;;
20166;SDS011;10243;49.118;8.508;2023-04-25T06:27:08;1.40;;;1.30;;
20166;SDS011;10243;49.118;8.508;2023-04-25T06:27:28;1.23;;;1.13;;
20166;SDS011;10243;49.118;8.508;2023-04-25T06:27:48;1.50;;;1.38;;
20166;SDS011;10243;49.118;8.508;2023-04-25T06:28:09;1.45;;;1.35;;
20166;SDS011;10243;49.118;8.508;2023-04-25T06:28:31;1.23;;;1.13;;
20166;SDS011;10243;49.118;8.508;2023-04-25T06:28:51;1.50;;;1.40;;
20166;SDS011;10243;49.118;8.508;2023-04-25T06:29:12;1.30;;;1.20;;
20166;SDS011;10243;49.118;8.508;2023-04-25T06:29:32;1.27;;;1.10;;
20166;SDS011;10243;49.118;8.508;2023-04-25T06:29:55;1.25;;;1.15;;
20166;SDS011;10243;49.118;8.508;2023-04-25T06:30:15;1.30;;;1.20;;
20166;SDS011;10243;49.118;8.508;2023-04-25T06:30:40;1.30;;;1.20;;
20166;SDS011;10243;49.118;8.508;2023-04-25T06:31:06;1.23;;;1.13;;
20166;SDS011;10243;49.118;8.508;2023-04-25T06:31:27;1.20;;;1.10;;
20166;SDS011;10243;49.118;8.508;2023-04-25T06:31:49;1.20;;;1.10;;
20166;SDS011;10243;49.118;8.508;2023-04-25T06:32:10;1.02;;;1.02;;
20166;SDS011;10243;49.118;8.508;2023-04-25T06:32:30;1.00;;;1.00;;
20166;SDS011;10243;49.118;8.508;2023-04-25T06:32:53;1.30;;;1.20;;
20166;SDS011;10243;49.118;8.508;2023-04-25T06:33:14;1.30;;;1.20;;
20166;SDS011;10243;49.118;8.508;2023-04-25T06:33:35;1.40;;;1.30;;
20166;SDS011;10243;49.118;8.508;2023-04-25T06:33:56;1.02;;;1.02;;
20166;SDS011;10243;49.118;8.508;2023-04-25T06:34:19;1.30;;;1.20;;
20166;SDS011;10243;49.118;8.508;2023-04-25T06:34:40;1.15;;;1.08;;
20166;SDS011;10243;49.118;8.508;2023-04-25T06:35:01;1.20;;;1.10;;
20166;SDS011;10243;49.118;8.508;2023-04-25T06:35:21;1.05;;;1.02;;
20166;SDS011;10243;49.118;8.508;2023-04-25T06:35:43;1.00;;;1.00;;
20166;SDS011;10243;49.118;8.508;2023-04-25T06:36:06;1.20;;;1.10;;
20166;SDS011;10243;49.118;8.508;2023-04-25T06:36:27;1.17;;;1.08;;
20166;SDS011;10243;49.118;8.508;2023-04-25T06:36:51;1.35;;;1.00;;
20166;SDS011;10243;49.118;8.508;2023-04-25T06:37:14;1.10;;;0.98;;
20166;SDS011;10243;49.118;8.508;2023-04-25T06:37:35;0.90;;;0.90;;
20166;SDS011;10243;49.118;8.508;2023-04-25T06:37:56;1.20;;;1.10;;
20166;SDS011;10243;49.118;8.508;2023-04-25T06:38:17;1.30;;;1.20;;
20166;SDS011;10243;49.118;8.508;2023-04-25T06:38:42;1.30;;;1.20;;
20166;SDS011;10243;49.118;8.508;2023-04-25T06:39:05;1.00;;;1.00;;
20166;SDS011;10243;49.118;8.508;2023-04-25T06:39:27;1.20;;;1.10;;
20166;SDS011;10243;49.118;8.508;2023-04-25T06:39:50;1.05;;;1.05;;
20166;SDS011;10243;49.118;8.508;2023-04-25T06:40:10;1.10;;;1.08;;
20166;SDS011;10243;49.118;8.508;2023-04-25T06:40:31;1.27;;;1.17;;
20166;SDS011;10243;49.118;8.508;2023-04-25T06:40:52;1.15;;;1.15;;
20166;SDS011;10243;49.118;8.508;2023-04-25T06:41:13;1.30;;;1.20;;
20166;SDS011;10243;49.118;8.508;2023-04-25T06:41:34;1.13;;;1.02;;
20166;SDS011;10243;49.118;8.508;2023-04-25T06:41:59;1.13;;;1.05;;
20166;SDS011;10243;49.118;8.508;2023-04-25T06:42:38;1.25;;;1.08;;
20166;SDS011;10243;49.118;8.508;2023-04-25T06:43:27;1.23;;;1.20;;
20166;SDS011;10243;49.118;8.508;2023-04-25T06:43:57;1.30;;;1.20;;
20166;SDS011;10243;49.118;8.508;2023-04-25T06:44:23;1.17;;;1.08;;
20166;SDS011;10243;49.118;8.508;2023-04-25T06:44:46;1.10;;;1.02;;
20166;SDS011;10243;49.118;8.508;2023-04-25T06:45:09;1.13;;;1.02;;
20166;SDS011;10243;49.118;8.508;2023-04-25T06:45:31;1.05;;;1.05;;
20166;SDS011;10243;49.118;8.508;2023-04-25T06:45:52;1.08;;;1.08;;
20166;SDS011;10243;49.118;8.508;2023-04-25T06:46:14;0.90;;;0.90;;
20166;SDS011;10243;49.118;8.508;2023-04-25T06:46:38;1.08;;;1.08;;
20166;SDS011;10243;49.118;8.508;2023-04-25T06:46:59;1.27;;;1.17;;
20166;SDS011;10243;49.118;8.508;2023-04-25T06:47:20;1.20;;;1.10;;
20166;SDS011;10243;49.118;8.508;2023-04-25T06:47:42;1.20;;;1.10;;
20166;SDS011;10243;49.118;8.508;2023-04-25T06:48:03;1.33;;;1.23;;
20166;SDS011;10243;49.118;8.508;2023-04-25T06:48:23;1.00;;;1.00;;
20166;SDS011;10243;49.118;8.508;2023-04-25T06:48:46;1.10;;;1.00;;
20166;SDS011;10243;49.118;8.508;2023-04-25T06:49:07;0.93;;;0.93;;
20166;SDS011;10243;49.118;8.508;2023-04-25T06:49:27;1.00;;;1.00;;
20166;SDS011;10243;49.118;8.508;2023-04-25T06:49:51;1.10;;;1.08;;
20166;SDS011;10243;49.118;8.508;2023-04-25T06:50:13;1.10;;;1.08;;
20166;SDS011;10243;49.118;8.508;2023-04-25T06:50:36;1.23;;;1.13;;
20166;SDS011;10243;49.118;8.508;2023-04-25T06:50:56;1.10;;;1.08;;
20166;SDS011;10243;49.118;8.508;2023-04-25T06:51:17;1.42;;;1.33;;
20166;SDS011;10243;49.118;8.508;2023-04-25T06:51:40;1.02;;;1.00;;
20166;SDS011;10243;49.118;8.508;2023-04-25T06:52:01;1.25;;;1.15;;
20166;SDS011;10243;49.118;8.508;2023-04-25T06:52:21;1.43;;;1.33;;
20166;SDS011;10243;49.118;8.508;2023-04-25T06:52:42;1.50;;;1.40;;
20166;SDS011;10243;49.118;8.508;2023-04-25T06:53:04;1.30;;;1.20;;
20166;SDS011;10243;49.118;8.508;2023-04-25T06:53:24;1.42;;;1.33;;
20166;SDS011;10243;49.118;8.508;2023-04-25T06:53:51;1.50;;;1.40;;
20166;SDS011;10243;49.118;8.508;2023-04-25T06:54:20;1.40;;;1.30;;
20166;SDS011;10243;49.118;8.508;2023-04-25T06:54:55;1.38;;;1.27;;
20166;SDS011;10243;49.118;8.508;2023-04-25T06:55:28;1.90;;;1.50;;
20166;SDS011;10243;49.118;8.508;2023-04-25T06:56:15;1.40;;;1.30;;
20166;SDS011;10243;49.118;8.508;2023-04-25T06:56:50;1.40;;;1.30;;
20166;SDS011;10243;49.118;8.508;2023-04-25T06:57:10;1.50;;;1.40;;
20166;SDS011;10243;49.118;8.508;2023-04-25T06:57:31;1.60;;;1.50;;
20166;SDS011;10243;49.118;8.508;2023-04-25T06:58:03;1.10;;;1.00;;
20166;SDS011;10243;49.118;8.508;2023-04-25T06:58:47;1.30;;;1.20;;
20166;SDS011;10243;49.118;8.508;2023-04-25T06:59:17;1.25;;;1.20;;
20166;SDS011;10243;49.118;8.508;2023-04-25T06:59:39;1.30;;;1.20;;
20166;SDS011;10243;49.118;8.508;2023-04-25T06:59:59;1.17;;;1.07;;
20166;SDS011;10243;49.118;8.508;2023-04-25T07:00:22;1.30;;;1.20;;
20166;SDS011;10243;49.118;8.508;2023-04-25T07:00:43;1.60;;;1.50;;
20166;SDS011;10243;49.118;8.508;2023-04-25T07:01:03;1.60;;;1.50;;
20166;SDS011;10243;49.118;8.508;2023-04-25T07:01:25;1.17;;;1.10;;
20166;SDS011;10243;49.118;8.508;2023-04-25T07:01:45;1.17;;;1.07;;
20166;SDS011;10243;49.118;8.508;2023-04-25T07:02:11;1.13;;;1.13;;
20166;SDS011;10243;49.118;8.508;2023-04-25T07:02:33;1.20;;;1.10;;
20166;SDS011;10243;49.118;8.508;2023-04-25T07:02:55;1.35;;;1.25;;
20166;SDS011;10243;49.118;8.508;2023-04-25T07:03:16;1.53;;;1.43;;
20166;SDS011;10243;49.118;8.508;2023-04-25T07:03:37;1.40;;;1.30;;
20166;SDS011;10243;49.118;8.508;2023-04-25T07:04:02;1.20;;;1.10;;
20166;SDS011;10243;49.118;8.508;2023-04-25T07:04:25;1.50;;;1.40;;
20166;SDS011;10243;49.118;8.508;2023-04-25T07:04:52;1.40;;;1.30;;
20166;SDS011;10243;49.118;8.508;2023-04-25T07:05:14;1.55;;;1.45;;
20166;SDS011;10243;49.118;8.508;2023-04-25T07:05:36;1.42;;;1.33;;
20166;SDS011;10243;49.118;8.508;2023-04-25T07:06:00;1.50;;;1.40;;
20166;SDS011;10243;49.118;8.508;2023-04-25T07:06:22;1.30;;;1.20;;
20166;SDS011;10243;49.118;8.508;2023-04-25T07:06:46;1.30;;;1.20;;
20166;SDS011;10243;49.118;8.508;2023-04-25T07:07:11;1.48;;;1.27;;
20166;SDS011;10243;49.118;8.508;2023-04-25T07:07:39;1.52;;;1.42;;
20166;SDS011;10243;49.118;8.508;2023-04-25T07:08:00;1.17;;;1.10;;
20166;SDS011;10243;49.118;8.508;2023-04-25T07:08:21;1.30;;;1.20;;
20166;SDS011;10243;49.118;8.508;2023-04-25T07:08:42;1.30;;;1.20;;
20166;SDS011;10243;49.118;8.508;2023-04-25T07:09:03;1.27;;;1.17;;
20166;SDS011;10243;49.118;8.508;2023-04-25T07:09:23;1.40;;;1.30;;
20166;SDS011;10243;49.118;8.508;2023-04-25T07:09:45;1.50;;;1.40;;
20166;SDS011;10243;49.118;8.508;2023-04-25T07:10:06;1.30;;;1.20;;
20166;SDS011;10243;49.118;8.508;2023-04-25T07:10:27;1.40;;;1.30;;
20166;SDS011;10243;49.118;8.508;2023-04-25T07:10:47;1.33;;;1.23;;
20166;SDS011;10243;49.118;8.508;2023-04-25T07:11:09;1.45;;;1.35;;
20166;SDS011;10243;49.118;8.508;2023-04-25T07:11:30;1.45;;;1.35;;
20166;SDS011;10243;49.118;8.508;2023-04-25T07:11:51;1.37;;;1.27;;
20166;SDS011;10243;49.118;8.508;2023-04-25T07:12:11;1.25;;;1.15;;
20166;SDS011;10243;49.118;8.508;2023-04-25T07:12:32;1.48;;;1.38;;
20166;SDS011;10243;49.118;8.508;2023-04-25T07:12:53;1.23;;;1.20;;
20166;SDS011;10243;49.118;8.508;2023-04-25T07:13:13;1.00;;;1.00;;
20166;SDS011;10243;49.118;8.508;2023-04-25T07:13:34;1.10;;;1.10;;
20166;SDS011;10243;49.118;8.508;2023-04-25T07:13:55;1.10;;;1.10;;
20166;SDS011;10243;49.118;8.508;2023-04-25T07:14:16;1.30;;;1.20;;
20166;SDS011;10243;49.118;8.508;2023-04-25T07:14:37;1.90;;;1.20;;
20166;SDS011;10243;49.118;8.508;2023-04-25T07:14:59;1.70;;;1.42;;
20166;SDS011;10243;49.118;8.508;2023-04-25T07:15:20;1.50;;;1.35;;
20166;SDS011;10243;49.118;8.508;2023-04-25T07:15:44;1.60;;;1.50;;
20166;SDS011;10243;49.118;8.508;2023-04-25T07:16:07;1.35;;;1.25;;
20166;SDS011;10243;49.118;8.508;2023-04-25T07:16:29;1.33;;;1.23;;
20166;SDS011;10243;49.118;8.508;2023-04-25T07:16:50;1.50;;;1.40;;
20166;SDS011;10243;49.118;8.508;2023-04-25T07:17:10;1.50;;;1.40;;
20166;SDS011;10243;49.118;8.508;2023-04-25T07:17:32;1.30;;;1.20;;
20166;SDS011;10243;49.118;8.508;2023-04-25T07:17:53;1.27;;;1.17;;
20166;SDS011;10243;49.118;8.508;2023-04-25T07:18:14;1.40;;;1.30;;
20166;SDS011;10243;49.118;8.508;2023-04-25T07:18:34;1.20;;;1.20;;
20166;SDS011;10243;49.118;8.508;2023-04-25T07:18:56;1.10;;;1.10;;
20166;SDS011;10243;49.118;8.508;2023-04-25T07:19:16;1.35;;;1.25;;
20166;SDS011;10243;49.118;8.508;2023-04-25T07:19:37;1.10;;;1.07;;
20166;SDS011;10243;49.118;8.508;2023-04-25T07:20:02;0.98;;;0.98;;
20166;SDS011;10243;49.118;8.508;2023-04-25T07:20:24;0.80;;;0.80;;
20166;SDS011;10243;49.118;8.508;2023-04-25T07:20:44;1.70;;;1.10;;
20166;SDS011;10243;49.118;8.508;2023-04-25T07:21:06;1.70;;;1.17;;
20166;SDS011;10243;49.118;8.508;2023-04-25T07:21:28;1.00;;;1.00;;
20166;SDS011;10243;49.118;8.508;2023-04-25T07:21:49;1.20;;;1.10;;
20166;SDS011;10243;49.118;8.508;2023-04-25T07:22:10;1.30;;;1.20;;
20166;SDS011;10243;49.118;8.508;2023-04-25T07:22:34;1.40;;;1.30;;
20166;SDS011;10243;49.118;8.508;2023-04-25T07:22:56;1.48;;;1.38;;
20166;SDS011;10243;49.118;8.508;2023-04-25T07:23:17;1.58;;;1.48;;
20166;SDS011;10243;49.118;8.508;2023-04-25T07:23:39;1.30;;;1.20;;
20166;SDS011;10243;49.118;8.508;2023-04-25T07:24:05;1.40;;;1.30;;
20166;SDS011;10243;49.118;8.508;2023-04-25T07:24:29;1.70;;;1.60;;
20166;SDS011;10243;49.118;8.508;2023-04-25T07:24:51;1.42;;;1.33;;
20166;SDS011;10243;49.118;8.508;2023-04-25T07:25:14;1.33;;;1.23;;
20166;SDS011;10243;49.118;8.508;2023-04-25T07:25:35;1.25;;;1.15;;
20166;SDS011;10243;49.118;8.508;2023-04-25T07:25:56;1.43;;;1.33;;
20166;SDS011;10243;49.118;8.508;2023-04-25T07:26:19;1.50;;;1.40;;
20166;SDS011;10243;49.118;8.508;2023-04-25T07:26:58;1.50;;;1.40;;
20166;SDS011;10243;49.118;8.508;2023-04-25T07:27:25;1.17;;;1.10;;
20166;SDS011;10243;49.118;8.508;2023-04-25T07:27:55;1.45;;;1.35;;
20166;SDS011;10243;49.118;8.508;2023-04-25T07:28:16;1.52;;;1.42;;
20166;SDS011;10243;49.118;8.508;2023-04-25T07:28:36;1.30;;;1.20;;
20166;SDS011;10243;49.118;8.508;2023-04-25T07:28:56;1.75;;;1.35;;
20166;SDS011;10243;49.118;8.508;2023-04-25T07:29:18;1.73;;;1.33;;
20166;SDS011;10243;49.118;8.508;2023-04-25T07:29:39;1.40;;;1.30;;
20166;SDS011;10243;49.118;8.508;2023-04-25T07:29:59;1.40;;;1.30;;
20166;SDS011;10243;49.118;8.508;2023-04-25T07:30:20;1.30;;;1.20;;
20166;SDS011;10243;49.118;8.508;2023-04-25T07:30:41;1.35;;;1.25;;
20166;SDS011;10243;49.118;8.508;2023-04-25T07:31:03;1.40;;;1.30;;
20166;SDS011;10243;49.118;8.508;2023-04-25T07:31:25;1.27;;;1.17;;
20166;SDS011;10243;49.118;8.508;2023-04-25T07:31:46;1.55;;;1.10;;
20166;SDS011;10243;49.118;8.508;2023-04-25T07:32:08;1.20;;;1.10;;
20166;SDS011;10243;49.118;8.508;2023-04-25T07:32:28;1.10;;;1.00;;
20166;SDS011;10243;49.118;8.508;2023-04-25T07:32:49;1.15;;;1.10;;
20166;SDS011;10243;49.118;8.508;2023-04-25T07:33:10;1.17;;;1.08;;
20166;SDS011;10243;49.118;8.508;2023-04-25T07:33:31;1.17;;;1.08;;
20166;SDS011;10243;49.118;8.508;2023-04-25T07:33:51;1.30;;;1.20;;
20166;SDS011;10243;49.118;8.508;2023-04-25T07:34:12;1.50;;;1.40;;
20166;SDS011;10243;49.118;8.508;2023-04-25T07:34:33;1.67;;;1.57;;
20166;SDS011;10243;49.118;8.508;2023-04-25T07:34:57;1.43;;;1.33;;
20166;SDS011;10243;49.118;8.508;2023-04-25T07:35:17;1.10;;;1.10;;
20166;SDS011;10243;49.118;8.508;2023-04-25T07:35:38;1.40;;;1.30;;
20166;SDS011;10243;49.118;8.508;2023-04-25T07:36:00;1.38;;;1.27;;
20166;SDS011;10243;49.118;8.508;2023-04-25T07:36:20;1.35;;;1.25;;
20166;SDS011;10243;49.118;8.508;2023-04-25T07:36:41;1.35;;;1.25;;
20166;SDS011;10243;49.118;8.508;2023-04-25T07:37:02;1.33;;;1.23;;
20166;SDS011;10243;49.118;8.508;2023-04-25T07:37:30;1.20;;;1.10;;
20166;SDS011;10243;49.118;8.508;2023-04-25T07:38:03;1.48;;;1.17;;
20166;SDS011;10243;49.118;8.508;2023-04-25T07:38:26;1.37;;;1.27;;
20166;SDS011;10243;49.118;8.508;2023-04-25T07:38:47;1.20;;;1.10;;
20166;SDS011;10243;49.118;8.508;2023-04-25T07:39:07;1.33;;;1.23;;
20166;SDS011;10243;49.118;8.508;2023-04-25T07:39:29;1.38;;;1.27;;
20166;SDS011;10243;49.118;8.508;2023-04-25T07:39:51;1.35;;;1.20;;
20166;SDS011;10243;49.118;8.508;2023-04-25T07:40:11;1.40;;;1.30;;
20166;SDS011;10243;49.118;8.508;2023-04-25T07:40:37;1.50;;;1.40;;
20166;SDS011;10243;49.118;8.508;2023-04-25T07:41:01;1.52;;;1.42;;
20166;SDS011;10243;49.118;8.508;2023-04-25T07:41:22;1.42;;;1.33;;
20166;SDS011;10243;49.118;8.508;2023-04-25T07:41:42;1.43;;;1.33;;
20166;SDS011;10243;49.118;8.508;2023-04-25T07:42:08;1.20;;;1.10;;
20166;SDS011;10243;49.118;8.508;2023-04-25T07:42:30;1.30;;;1.20;;
20166;SDS011;10243;49.118;8.508;2023-04-25T07:42:51;1.52;;;1.42;;
20166;SDS011;10243;49.118;8.508;2023-04-25T07:43:18;3.45;;;1.40;;
20166;SDS011;10243;49.118;8.508;2023-04-25T07:43:48;1.30;;;1.20;;
20166;SDS011;10243;49.118;8.508;2023-04-25T07:44:10;1.00;;;1.00;;
20166;SDS011;10243;49.118;8.508;2023-04-25T07:44:30;1.30;;;1.20;;
20166;SDS011;10243;49.118;8.508;2023-04-25T07:44:51;1.30;;;1.20;;
20166;SDS011;10243;49.118;8.508;2023-04-25T07:45:11;1.40;;;1.30;;
20166;SDS011;10243;49.118;8.508;2023-04-25T07:45:34;1.33;;;1.23;;
20166;SDS011;10243;49.118;8.508;2023-04-25T07:45:55;1.45;;;1.35;;
20166;SDS011;10243;49.118;8.508;2023-04-25T07:46:20;1.38;;;1.27;;
20166;SDS011;10243;49.118;8.508;2023-04-25T07:46:40;1.33;;;1.23;;
20166;SDS011;10243;49.118;8.508;2023-04-25T07:47:19;1.30;;;1.20;;
20166;SDS011;10243;49.118;8.508;2023-04-25T07:48:16;1.63;;;1.52;;
20166;SDS011;10243;49.118;8.508;2023-04-25T07:49:28;1.60;;;1.50;;
20166;SDS011;10243;49.118;8.508;2023-04-25T07:49:51;1.25;;;1.25;;
20166;SDS011;10243;49.118;8.508;2023-04-25T07:50:25;1.45;;;1.35;;
20166;SDS011;10243;49.118;8.508;2023-04-25T07:50:47;1.63;;;1.52;;
20166;SDS011;10243;49.118;8.508;2023-04-25T07:51:08;1.58;;;1.45;;
20166;SDS011;10243;49.118;8.508;2023-04-25T07:51:33;1.15;;;1.10;;
20166;SDS011;10243;49.118;8.508;2023-04-25T07:52:01;1.50;;;1.40;;
20166;SDS011;10243;49.118;8.508;2023-04-25T07:52:29;1.40;;;1.30;;
20166;SDS011;10243;49.118;8.508;2023-04-25T07:52:57;1.40;;;1.30;;
20166;SDS011;10243;49.118;8.508;2023-04-25T07:53:23;1.33;;;1.23;;
20166;SDS011;10243;49.118;8.508;2023-04-25T07:53:48;1.40;;;1.30;;
20166;SDS011;10243;49.118;8.508;2023-04-25T07:54:12;1.50;;;1.40;;
20166;SDS011;10243;49.118;8.508;2023-04-25T07:54:37;1.58;;;1.48;;
20166;SDS011;10243;49.118;8.508;2023-04-25T07:55:12;1.73;;;1.63;;
20166;SDS011;10243;49.118;8.508;2023-04-25T07:55:42;1.52;;;1.42;;
20166;SDS011;10243;49.118;8.508;2023-04-25T07:56:09;1.52;;;1.42;;
20166;SDS011;10243;49.118;8.508;2023-04-25T07:56:33;1.48;;;1.38;;
20166;SDS011;10243;49.118;8.508;2023-04-25T07:56:55;1.33;;;1.23;;
20166;SDS011;10243;49.118;8.508;2023-04-25T07:57:20;1.40;;;1.23;;
20166;SDS011;10243;49.118;8.508;2023-04-25T07:57:42;1.38;;;1.20;;
20166;SDS011;10243;49.118;8.508;2023-04-25T07:58:04;1.40;;;1.30;;
20166;SDS011;10243;49.118;8.508;2023-04-25T07:58:31;1.50;;;1.40;;
20166;SDS011;10243;49.118;8.508;2023-04-25T07:58:55;1.42;;;1.33;;
20166;SDS011;10243;49.118;8.508;2023-04-25T07:59:20;1.40;;;1.30;;
20166;SDS011;10243;49.118;8.508;2023-04-25T07:59:44;1.35;;;1.25;;
20166;SDS011;10243;49.118;8.508;2023-04-25T08:00:06;1.40;;;1.30;;
20166;SDS011;10243;49.118;8.508;2023-04-25T08:00:36;1.58;;;1.48;;
20166;SDS011;10243;49.118;8.508;2023-04-25T08:01:17;1.50;;;1.40;;
20166;SDS011;10243;49.118;8.508;2023-04-25T08:01:49;1.60;;;1.50;;
20166;SDS011;10243;49.118;8.508;2023-04-25T08:02:12;1.67;;;1.58;;
20166;SDS011;10243;49.118;8.508;2023-04-25T08:02:33;1.60;;;1.50;;
20166;SDS011;10243;49.118;8.508;2023-04-25T08:02:54;1.67;;;1.58;;
20166;SDS011;10243;49.118;8.508;2023-04-25T08:03:17;1.23;;;1.13;;
20166;SDS011;10243;49.118;8.508;2023-04-25T08:03:37;1.40;;;1.30;;
20166;SDS011;10243;49.118;8.508;2023-04-25T08:04:03;1.38;;;1.27;;
20166;SDS011;10243;49.118;8.508;2023-04-25T08:04:47;1.50;;;1.40;;
20166;SDS011;10243;49.118;8.508;2023-04-25T08:05:11;1.45;;;1.35;;
20166;SDS011;10243;49.118;8.508;2023-04-25T08:05:36;1.52;;;1.42;;
20166;SDS011;10243;49.118;8.508;2023-04-25T08:05:59;1.70;;;1.60;;
20166;SDS011;10243;49.118;8.508;2023-04-25T08:06:23;1.70;;;1.60;;
20166;SDS011;10243;49.118;8.508;2023-04-25T08:07:09;1.60;;;1.50;;
20166;SDS011;10243;49.118;8.508;2023-04-25T08:07:38;1.60;;;1.50;;
20166;SDS011;10243;49.118;8.508;2023-04-25T08:08:00;1.55;;;1.45;;
20166;SDS011;10243;49.118;8.508;2023-04-25T08:08:22;1.50;;;1.40;;
20166;SDS011;10243;49.118;8.508;2023-04-25T08:08:43;1.50;;;1.40;;
20166;SDS011;10243;49.118;8.508;2023-04-25T08:09:06;1.80;;;1.70;;
20166;SDS011;10243;49.118;8.508;2023-04-25T08:09:32;1.50;;;1.40;;
20166;SDS011;10243;49.118;8.508;2023-04-25T08:09:55;1.55;;;1.45;;
20166;SDS011;10243;49.118;8.508;2023-04-25T08:10:26;1.87;;;1.67;;
20166;SDS011;10243;49.118;8.508;2023-04-25T08:10:48;1.65;;;1.55;;
20166;SDS011;10243;49.118;8.508;2023-04-25T08:11:10;1.70;;;1.60;;
20166;SDS011;10243;49.118;8.508;2023-04-25T08:11:30;1.55;;;1.45;;
20166;SDS011;10243;49.118;8.508;2023-04-25T08:11:51;1.60;;;1.50;;
20166;SDS011;10243;49.118;8.508;2023-04-25T08:12:17;1.40;;;1.30;;
20166;SDS011;10243;49.118;8.508;2023-04-25T08:12:38;1.55;;;1.45;;
20166;SDS011;10243;49.118;8.508;2023-04-25T08:12:58;1.60;;;1.50;;
20166;SDS011;10243;49.118;8.508;2023-04-25T08:13:19;1.60;;;1.40;;
20166;SDS011;10243;49.118;8.508;2023-04-25T08:13:40;2.40;;;1.60;;
20166;SDS011;10243;49.118;8.508;2023-04-25T08:14:01;1.58;;;1.48;;
20166;SDS011;10243;49.118;8.508;2023-04-25T08:14:21;1.50;;;1.40;;
20166;SDS011;10243;49.118;8.508;2023-04-25T08:14:42;1.60;;;1.50;;
20166;SDS011;10243;49.118;8.508;2023-04-25T08:15:05;1.80;;;1.70;;
20166;SDS011;10243;49.118;8.508;2023-04-25T08:15:29;1.63;;;1.52;;
20166;SDS011;10243;49.118;8.508;2023-04-25T08:15:49;1.63;;;1.53;;
20166;SDS011;10243;49.118;8.508;2023-04-25T08:16:11;1.65;;;1.55;;
20166;SDS011;10243;49.118;8.508;2023-04-25T08:16:33;1.83;;;1.73;;
20166;SDS011;10243;49.118;8.508;2023-04-25T08:16:53;1.55;;;1.45;;
20166;SDS011;10243;49.118;8.508;2023-04-25T08:17:14;1.35;;;1.25;;
20166;SDS011;10243;49.118;8.508;2023-04-25T08:17:36;1.73;;;1.63;;
20166;SDS011;10243;49.118;8.508;2023-04-25T08:17:56;1.60;;;1.50;;
20166;SDS011;10243;49.118;8.508;2023-04-25T08:18:17;1.50;;;1.40;;
20166;SDS011;10243;49.118;8.508;2023-04-25T08:18:38;1.60;;;1.50;;
20166;SDS011;10243;49.118;8.508;2023-04-25T08:18:59;1.50;;;1.40;;
20166;SDS011;10243;49.118;8.508;2023-04-25T08:19:20;1.40;;;1.30;;
20166;SDS011;10243;49.118;8.508;2023-04-25T08:19:41;1.60;;;1.40;;